Latest Weather Observations for Badgingarra

IDW60801

Issued at 9:32 pm WST Tuesday 4 August 2015 (issued every 30 minutes, with the page automatically refreshed every 10 minutes)

About weather observations | Map of weather stations | Latest weather observations for WA | Other Formats
Station Details ID: 009037 Name: BADGINGARRA RESEARCH STN Lat: -30.34 Lon: 115.54 Height: 275.0 m
Data from the previous 72 hours. | See also: Recent months at Badgingarra
Date/Time
WST
Temp
°C
App
Temp
°C
Dew
Point
Rel
Hum
%
Delta-T
°C
Wind Press
QNH
hPa
Press
MSL
hPa
Rain
since 9 am
mm
Dir
 
Spd
km/h
Gust
km/h
Spd
kts
Gust
kts
04/09:30pm 10.3 6.0 6.8 79 1.7 ESE 19 24 10 13 - - 0.0
04/09:00pm 10.4 6.4 6.5 77 1.9 ESE 17 22 9 12 - - 0.0
04/08:30pm 10.0 6.8 6.9 81 1.5 ESE 13 17 7 9 - - 0.0
04/08:00pm 10.1 6.9 7.0 81 1.5 ESE 13 15 7 8 - - 0.0
04/07:30pm 10.6 7.6 7.5 81 1.5 ESE 13 15 7 8 - - 0.0
04/07:00pm 10.1 7.7 6.8 80 1.6 ESE 9 11 5 6 - - 0.0
04/06:30pm 11.2 8.9 7.3 77 1.9 E 9 13 5 7 - - 0.0
04/06:00pm 11.8 8.7 7.1 73 2.3 ESE 13 19 7 10 - - 0.0
04/05:30pm 12.8 9.0 7.5 70 2.6 E 17 24 9 13 - - 0.0
04/05:00pm 13.3 8.8 7.1 66 3.1 E 20 26 11 14 - - 0.0
04/04:30pm 13.8 9.5 6.9 63 3.4 E 19 26 10 14 - - 0.0
04/04:00pm 14.3 10.5 7.4 63 3.4 E 17 22 9 12 - - 0.0
04/03:30pm 14.7 10.9 7.7 63 3.5 E 17 20 9 11 - - 0.0
04/03:00pm 15.1 11.2 7.2 59 3.9 E 17 26 9 14 - - 0.0
04/02:30pm 15.5 11.2 6.8 56 4.3 E 19 24 10 13 - - 0.0
04/02:00pm 16.0 11.6 6.4 53 4.7 ENE 19 26 10 14 - - 0.0
04/01:30pm 15.9 11.7 7.4 57 4.3 ENE 19 26 10 14 - - 0.0
04/01:00pm 15.2 10.7 7.0 58 4.1 ENE 20 28 11 15 - - 0.0
04/12:30pm 15.8 10.7 7.6 58 4.1 ENE 24 30 13 16 - - 0.0
04/12:00pm 14.8 9.2 7.1 60 3.8 ENE 26 33 14 18 - - 0.0
04/11:30am 14.7 9.1 7.0 60 3.8 ENE 26 33 14 18 - - 0.0
04/11:00am 14.6 9.5 7.6 63 3.5 ENE 24 33 13 18 - - 0.0
04/10:30am 13.3 8.9 7.3 67 3.0 ENE 20 28 11 15 - - 0.0
04/10:00am 12.2 7.8 7.3 72 2.4 ENE 20 28 11 15 - - 0.0
04/09:30am 10.4 6.4 6.5 77 1.9 ENE 17 22 9 12 - - 0.0
04/09:00am 9.3 5.6 6.2 81 1.5 ENE 15 20 8 11 - - 0.0
04/08:30am 9.0 5.6 6.1 82 1.4 ENE 13 19 7 10 - - 0.0
04/08:00am 8.7 4.1 5.6 81 1.4 ENE 19 26 10 14 - - 0.0
04/07:30am 8.7 3.1 5.6 81 1.4 ENE 24 30 13 16 - - 0.0
04/07:00am 8.6 3.4 5.7 82 1.3 ENE 22 28 12 15 - - 0.0
04/06:30am 8.5 2.9 5.6 82 1.3 ENE 24 32 13 17 - - 0.0
04/06:00am 8.9 3.4 5.8 81 1.4 ENE 24 30 13 16 - - 0.0
04/05:30am 8.8 3.3 5.9 82 1.3 ENE 24 32 13 17 - - 0.0
04/05:00am 8.9 3.8 6.0 82 1.3 ENE 22 30 12 16 - - 0.0
04/04:30am 9.1 4.0 6.0 81 1.4 ENE 22 30 12 16 - - 0.0
04/04:00am 9.3 4.2 6.2 81 1.5 ENE 22 28 12 15 - - 0.0
04/03:30am 9.3 4.3 6.4 82 1.4 E 22 32 12 17 - - 0.0
04/03:00am 9.4 4.8 6.5 82 1.4 E 20 30 11 16 - - 0.0
04/02:30am 9.5 4.9 6.4 81 1.5 E 20 32 11 17 - - 0.0
04/02:00am 9.8 3.3 6.5 80 1.6 E 30 39 16 21 - - 0.0
04/01:30am 9.7 3.6 6.6 81 1.5 E 28 37 15 20 - - 0.0
04/01:00am 10.1 3.2 6.6 79 1.7 E 32 39 17 21 - - 0.0
04/12:30am 10.0 4.3 6.7 80 1.6 ESE 26 35 14 19 - - 0.0
04/12:00am 10.2 4.5 6.5 78 1.8 E 26 35 14 19 - - 0.0
 
Date/Time
WST
Temp
°C
App
Temp
°C
Dew
Point
Rel
Hum
%
Delta-T
°C
Wind Press
QNH
hPa
Press
MSL
hPa
Rain
since 9 am
mm
Dir
 
Spd
km/h
Gust
km/h
Spd
kts
Gust
kts
03/11:30pm 10.5 4.4 6.6 77 1.9 E 28 39 15 21 - - 0.0
03/11:00pm 10.8 4.3 6.7 76 2.0 E 30 39 16 21 - - 0.0
03/10:30pm 10.7 4.6 6.8 77 1.9 ESE 28 39 15 21 - - 0.0
03/10:00pm 10.3 5.4 6.8 79 1.7 ESE 22 32 12 17 - - 0.0
03/09:30pm 10.7 5.4 7.0 78 1.8 ESE 24 33 13 18 - - 0.0
03/09:00pm 10.7 5.4 7.0 78 1.8 ESE 24 33 13 18 - - 0.0
03/08:30pm 10.7 5.4 7.0 78 1.8 ESE 24 35 13 19 - - 0.0
03/08:00pm 11.1 5.9 7.2 77 1.9 ESE 24 32 13 17 - - 0.0
03/07:30pm 11.5 6.7 7.4 76 2.0 ESE 22 30 12 16 - - 0.0
03/07:00pm 11.4 7.5 7.1 75 2.1 ESE 17 20 9 11 - - 0.0
03/06:30pm 11.7 7.4 7.2 74 2.2 ESE 19 26 10 14 - - 0.0
03/06:00pm 12.0 8.1 7.3 73 2.3 ESE 17 22 9 12 - - 0.0
03/05:30pm 12.2 8.4 7.5 73 2.3 ESE 17 22 9 12 - - 0.0
03/05:00pm 13.0 8.5 6.8 66 3.0 E 20 28 11 15 - - 0.0
03/04:30pm 14.5 10.0 6.8 60 3.8 ESE 20 28 11 15 - - 0.0
03/04:00pm 14.4 9.3 6.0 57 4.1 ESE 22 30 12 16 - - 0.0
03/03:30pm 15.0 10.4 6.6 57 4.1 ESE 20 30 11 16 - - 0.0
03/03:00pm 15.3 10.5 5.8 53 4.6 E 20 28 11 15 - - 0.0
03/02:30pm 15.9 11.3 6.3 53 4.7 E 20 26 11 14 - - 0.0
03/02:00pm 15.6 10.6 6.6 55 4.5 E 22 28 12 15 - - 0.0
03/01:30pm 15.4 10.7 6.2 54 4.5 E 20 26 11 14 - - 0.0
03/01:00pm 15.1 10.1 6.4 56 4.3 ENE 22 33 12 18 - - 0.0
03/12:30pm 14.6 8.7 5.7 55 4.3 ENE 26 35 14 19 - - 0.0
03/12:00pm 14.3 7.7 5.9 57 4.1 ENE 30 39 16 21 - - 0.0
03/11:30am 13.5 6.4 5.7 59 3.7 ENE 32 43 17 23 - - 0.0
03/11:00am 13.1 5.9 6.0 62 3.4 NE 33 43 18 23 - - 0.0
03/10:30am 12.5 5.5 5.9 64 3.1 ENE 32 43 17 23 - - 0.0
03/10:00am 11.7 5.0 5.8 67 2.8 ENE 30 43 16 23 - - 0.0
03/09:30am 10.6 5.1 5.8 72 2.3 ENE 24 39 13 21 - - 0.0
03/09:00am 9.6 4.5 6.0 78 1.7 ENE 22 30 12 16 - - 0.0
03/08:30am 8.1 3.2 5.0 81 1.4 ENE 20 30 11 16 - - 0.0
03/08:00am 7.5 2.1 4.6 82 1.3 ENE 22 30 12 16 - - 0.0
03/07:30am 7.0 1.6 4.3 83 1.2 ENE 22 32 12 17 - - 0.0
03/07:00am 7.0 0.0 4.1 82 1.3 ENE 30 39 16 21 - - 0.0
03/06:30am 6.8 -0.2 4.1 83 1.2 ENE 30 43 16 23 - - 0.0
03/06:00am 7.4 1.3 4.7 83 1.2 ENE 26 37 14 20 - - 0.0
03/05:30am 6.9 0.7 4.4 84 1.1 E 26 33 14 18 - - 0.0
03/05:00am 6.5 -0.5 4.2 85 1.0 E 30 37 16 20 - - 0.0
03/04:30am 6.9 0.0 4.4 84 1.1 E 30 39 16 21 - - 0.0
03/04:00am 7.2 0.7 4.5 83 1.2 E 28 39 15 21 - - 0.0
03/03:30am 7.1 1.3 4.6 84 1.1 E 24 32 13 17 - - 0.0
03/03:00am 6.1 1.6 4.3 88 0.8 E 17 20 9 11 - - 0.0
03/02:30am 6.8 1.4 4.6 86 1.0 E 22 28 12 15 - - 0.0
03/02:00am 7.1 1.4 4.8 85 1.0 E 24 30 13 16 - - 0.0
03/01:30am 7.3 1.2 5.0 85 1.0 E 26 33 14 18 - - 0.0
03/01:00am 7.4 2.1 5.0 85 1.1 E 22 30 12 16 - - 0.0
03/12:30am 7.0 2.1 5.0 87 0.9 ESE 20 26 11 14 - - 0.0
03/12:00am 7.0 1.7 5.0 87 0.9 ESE 22 30 12 16 - - 0.0
 
Date/Time
WST
Temp
°C
App
Temp
°C
Dew
Point
Rel
Hum
%
Delta-T
°C
Wind Press
QNH
hPa
Press
MSL
hPa
Rain
since 9 am
mm
Dir
 
Spd
km/h
Gust
km/h
Spd
kts
Gust
kts
02/11:30pm 7.5 1.8 5.1 85 1.1 ESE 24 33 13 18 - - 0.0
02/11:00pm 7.7 2.4 5.2 84 1.1 ESE 22 30 12 16 - - 0.0
02/10:30pm 8.0 2.8 5.3 83 1.2 ESE 22 30 12 16 - - 0.0
02/10:00pm 7.1 3.2 5.3 88 0.8 ESE 15 20 8 11 - - 0.0
02/09:30pm 7.4 3.0 5.0 85 1.1 ESE 17 22 9 12 - - 0.0
02/09:00pm 8.1 3.5 5.4 83 1.2 ESE 19 24 10 13 - - 0.0
02/08:30pm 8.5 3.3 5.4 81 1.4 ESE 22 30 12 16 - - 0.0
02/08:00pm 8.7 3.9 5.6 81 1.4 ESE 20 26 11 14 - - 0.0
02/07:30pm 8.8 4.0 5.7 81 1.4 ESE 20 26 11 14 - - 0.0
02/07:00pm 9.2 5.0 5.8 79 1.6 ESE 17 22 9 12 - - 0.0
02/06:30pm 9.3 5.1 5.7 78 1.7 SE 17 22 9 12 - - 0.0
02/06:00pm 9.8 6.4 6.0 77 1.8 ESE 13 19 7 10 - - 0.0
02/05:30pm 11.0 6.5 6.2 72 2.3 ESE 19 24 10 13 - - 0.0
02/05:00pm 12.1 6.7 6.4 68 2.7 ESE 24 32 13 17 - - 0.0
02/04:30pm 12.9 8.0 6.7 66 3.0 ESE 22 32 12 17 - - 0.0
02/04:00pm 13.2 7.8 6.5 64 3.3 E 24 30 13 16 - - 0.0
02/03:30pm 13.4 7.6 6.3 62 3.4 E 26 33 14 18 - - 0.0
02/03:00pm 13.8 8.2 7.1 64 3.3 E 26 33 14 18 - - 0.0
02/02:30pm 13.9 8.4 7.4 65 3.2 ESE 26 35 14 19 - - 0.0
02/02:00pm 14.0 8.6 7.8 66 3.1 ESE 26 35 14 19 - - 0.0
02/01:30pm 13.4 7.7 6.7 64 3.3 ESE 26 35 14 19 - - 0.0
02/01:00pm 13.1 7.0 6.7 65 3.1 E 28 37 15 20 - - 0.0
02/12:30pm 13.0 6.9 6.8 66 3.0 ESE 28 37 15 20 - - 0.0
02/12:00pm 12.9 6.8 6.7 66 3.0 ESE 28 39 15 21 - - 0.0
02/11:30am 12.3 5.8 6.4 67 2.8 ESE 30 37 16 20 - - 0.0
02/11:00am 11.9 5.4 6.6 70 2.6 ESE 30 39 16 21 - - 0.0
02/10:30am 11.2 4.9 5.9 70 2.5 ESE 28 37 15 20 - - 0.0
02/10:00am 10.6 4.4 6.0 73 2.2 ESE 28 33 15 18 - - 0.0
02/09:30am 9.5 4.0 5.7 77 1.8 ESE 24 33 13 18 - - 0.0
02/09:00am 8.3 1.8 4.7 78 1.6 ESE 28 37 15 20 - - 0.2
02/08:30am 7.5 1.7 4.6 82 1.3 SE 24 32 13 17 - - 0.2
02/08:00am 6.6 0.7 3.9 83 1.2 SE 24 32 13 17 - - 0.2
02/07:30am 6.0 0.4 3.7 85 1.0 SE 22 33 12 18 - - 0.2
02/07:00am 5.9 0.3 3.7 86 0.9 SE 22 32 12 17 - - 0.2
02/06:30am 6.1 0.2 4.1 87 0.9 SE 24 32 13 17 - - 0.2
02/06:00am 6.0 0.1 4.0 87 0.9 SE 24 32 13 17 - - 0.2
02/05:30am 6.2 0.3 4.0 86 1.0 SE 24 32 13 17 - - 0.2
02/05:00am 6.2 1.1 3.9 85 1.0 SE 20 30 11 16 - - 0.2
02/04:30am 6.4 1.3 4.2 86 1.0 SE 20 26 11 14 - - 0.2
02/04:00am 6.2 1.3 4.2 87 0.9 SSE 19 24 10 13 - - 0.2
02/03:30am 6.3 1.4 4.3 87 0.9 SSE 19 24 10 13 - - 0.2
02/03:00am 6.5 1.6 4.3 86 1.0 SE 19 26 10 14 - - 0.2
02/02:30am 6.6 1.8 4.4 86 1.0 SE 19 26 10 14 - - 0.2
02/02:00am 6.5 1.6 4.3 86 1.0 SE 19 22 10 12 - - 0.2
02/01:30am 7.2 2.3 4.9 85 1.0 SE 20 28 11 15 - - 0.2
02/01:00am 7.6 2.9 5.1 84 1.1 SE 19 26 10 14 - - 0.2
02/12:30am 7.9 3.0 5.2 83 1.2 SE 20 28 11 15 - - 0.2
02/12:00am 8.1 3.4 5.2 82 1.3 SE 19 26 10 14 - - 0.2
 
Date/Time
WST
Temp
°C
App
Temp
°C
Dew
Point
Rel
Hum
%
Delta-T
°C
Wind Press
QNH
hPa
Press
MSL
hPa
Rain
since 9 am
mm
Dir
 
Spd
km/h
Gust
km/h
Spd
kts
Gust
kts
01/11:30pm 8.4 3.8 5.5 82 1.3 SE 19 24 10 13 - - 0.2
01/11:00pm 8.7 3.6 5.8 82 1.3 SE 22 26 12 14 - - 0.2
01/10:30pm 9.2 3.8 6.3 82 1.4 SE 24 32 13 17 - - 0.2
01/10:00pm 9.3 4.4 6.7 84 1.2 SE 22 28 12 15 - - 0.2

Other Formats:

Comma delimited format used in spreadsheet applications
http://www.bom.gov.au/fwo/IDW60801/IDW60801.94603.axf

JavaScript Object Notation format (JSON) in row-major order
http://www.bom.gov.au/fwo/IDW60801/IDW60801.94603.json